createdAt,value
2023-02-09T00:01:56.558Z,98.60
2023-02-09T00:04:23.832Z,98.90
2023-02-09T00:06:54.159Z,98.90
2023-02-09T00:09:24.368Z,99.30
2023-02-09T00:12:13.211Z,99.10
2023-02-09T00:14:40.442Z,99.50
2023-02-09T00:17:12.981Z,99.60
2023-02-09T00:19:43.045Z,99.90
2023-02-09T00:22:10.182Z,99.90
2023-02-09T00:24:37.633Z,99.90
2023-02-09T00:27:04.811Z,99.90
2023-02-09T00:29:31.907Z,99.90
2023-02-09T00:32:02.067Z,99.90
2023-02-09T00:34:33.179Z,99.90
2023-02-09T00:37:00.363Z,99.90
2023-02-09T00:39:27.327Z,99.90
2023-02-09T00:42:06.190Z,99.90
2023-02-09T00:44:33.621Z,99.90
2023-02-09T00:47:05.356Z,99.90
2023-02-09T00:49:36.571Z,99.90
2023-02-09T00:52:04.080Z,99.90
2023-02-09T00:54:31.251Z,99.90
2023-02-09T00:57:06.991Z,99.90
2023-02-09T00:59:35.472Z,99.90
2023-02-09T01:02:05.078Z,99.90
2023-02-09T01:04:34.214Z,99.90
2023-02-09T01:07:01.615Z,99.90
2023-02-09T01:09:29.190Z,99.90
2023-02-09T01:11:56.472Z,99.90
2023-02-09T01:14:24.172Z,99.90
2023-02-09T01:17:00.309Z,99.90
2023-02-09T01:19:30.164Z,99.90
2023-02-09T01:21:58.545Z,99.90
2023-02-09T01:24:25.719Z,99.90
2023-02-09T01:26:52.668Z,99.90
2023-02-09T01:29:21.495Z,99.90
2023-02-09T01:31:49.022Z,99.90
2023-02-09T01:34:18.354Z,99.90
2023-02-09T01:36:46.273Z,99.90
2023-02-09T01:39:14.938Z,99.90
2023-02-09T01:41:45.001Z,99.90
2023-02-09T01:45:05.391Z,99.90
2023-02-09T01:47:41.721Z,99.90
2023-02-09T01:50:16.782Z,99.90
2023-02-09T01:52:47.355Z,99.90
2023-02-09T01:55:21.354Z,99.90
2023-02-09T01:57:55.518Z,99.90
2023-02-09T02:00:23.489Z,99.90
2023-02-09T02:02:55.325Z,99.90
2023-02-09T02:05:23.764Z,99.90
2023-02-09T02:07:58.229Z,99.90
2023-02-09T02:10:26.950Z,99.90
2023-02-09T02:12:55.160Z,99.90
2023-02-09T02:15:27.518Z,99.90
2023-02-09T02:18:14.624Z,99.90
2023-02-09T02:21:31.402Z,99.90
2023-02-09T02:24:31.926Z,99.90
2023-02-09T02:27:05.287Z,99.90
2023-02-09T02:30:41.544Z,99.90
2023-02-09T02:33:23.688Z,99.90
2023-02-09T02:35:54.553Z,99.90
2023-02-09T02:38:32.275Z,99.90
2023-02-09T02:41:10.856Z,99.90
2023-02-09T02:43:57.702Z,99.90
2023-02-09T02:46:33.186Z,99.90
2023-02-09T02:49:10.570Z,99.90
2023-02-09T02:51:43.685Z,99.90
2023-02-09T02:54:18.411Z,99.90
2023-02-09T02:56:51.346Z,99.90
2023-02-09T02:59:24.158Z,99.90
2023-02-09T03:01:58.263Z,99.90
2023-02-09T03:04:28.671Z,99.90
2023-02-09T03:06:55.804Z,99.90
2023-02-09T03:09:22.890Z,99.90
2023-02-09T03:11:56.216Z,99.90
2023-02-09T03:14:43.023Z,99.90
2023-02-09T03:21:20.428Z,99.90
2023-02-09T03:23:54.487Z,99.90
2023-02-09T03:26:29.421Z,99.90
2023-02-09T03:28:58.926Z,99.90
2023-02-09T03:31:32.694Z,99.90
2023-02-09T03:34:00.876Z,99.90
2023-02-09T03:36:37.961Z,99.90
2023-02-09T03:39:05.676Z,99.90
2023-02-09T03:41:32.726Z,99.90
2023-02-09T03:44:21.622Z,99.90
2023-02-09T03:46:48.755Z,99.90
2023-02-09T03:49:21.914Z,99.90
2023-02-09T03:51:52.644Z,99.90
2023-02-09T03:54:22.862Z,99.90
2023-02-09T03:56:52.767Z,99.90
2023-02-09T03:59:25.216Z,99.90
2023-02-09T04:01:53.605Z,99.90
2023-02-09T04:04:28.409Z,99.90
2023-02-09T04:07:05.853Z,99.90
2023-02-09T04:09:33.878Z,99.90
2023-02-09T04:12:09.384Z,99.90
2023-02-09T04:14:40.130Z,99.90
2023-02-09T04:17:07.098Z,99.90
2023-02-09T04:19:34.183Z,99.90
2023-02-09T04:22:05.284Z,99.90
2023-02-09T04:24:32.258Z,99.90
2023-02-09T04:27:01.608Z,99.90
2023-02-09T04:29:31.745Z,99.90
2023-02-09T04:31:58.715Z,99.90
2023-02-09T04:34:26.004Z,99.90
2023-02-09T04:36:58.964Z,99.90
2023-02-09T04:39:27.336Z,99.90
2023-02-09T04:41:54.431Z,99.90
2023-02-09T04:44:21.326Z,99.90
2023-02-09T04:46:48.423Z,99.90
2023-02-09T04:49:15.463Z,99.90
2023-02-09T04:51:42.568Z,99.90
2023-02-09T04:54:11.552Z,99.90
2023-02-09T04:56:39.843Z,99.90
2023-02-09T04:59:25.352Z,99.90
2023-02-09T05:01:52.523Z,99.90
2023-02-09T05:04:22.619Z,99.90
2023-02-09T05:06:49.759Z,99.90
2023-02-09T05:09:19.801Z,99.90
2023-02-09T05:11:48.299Z,99.90
2023-02-09T05:14:15.466Z,99.90
2023-02-09T05:16:42.607Z,99.90
2023-02-09T05:19:09.541Z,99.90
2023-02-09T05:21:36.656Z,99.90
2023-02-09T05:24:03.934Z,99.90
2023-02-09T05:26:31.200Z,99.90
2023-02-09T05:28:59.536Z,99.90
2023-02-09T05:31:26.681Z,99.90
2023-02-09T05:33:53.773Z,99.90
2023-02-09T05:36:20.832Z,99.90
2023-02-09T05:38:50.871Z,99.90
2023-02-09T05:41:36.570Z,99.90
2023-02-09T05:44:05.476Z,99.90
2023-02-09T05:46:32.454Z,99.90
2023-02-09T05:48:59.468Z,99.90
2023-02-09T05:51:26.549Z,99.90
2023-02-09T05:53:53.726Z,99.90
2023-02-09T05:56:23.883Z,99.90
2023-02-09T05:58:50.981Z,99.90
2023-02-09T06:01:21.895Z,99.90
2023-02-09T06:03:49.168Z,99.90
2023-02-09T06:06:16.221Z,99.90
2023-02-09T06:08:46.369Z,99.90
2023-02-09T06:11:23.574Z,99.90
2023-02-09T06:13:50.722Z,99.90
2023-02-09T06:16:21.780Z,99.90
2023-02-09T06:18:54.942Z,99.90
2023-02-09T06:21:25.037Z,99.90
2023-02-09T06:23:55.347Z,99.90
2023-02-09T06:26:24.570Z,99.90
2023-02-09T06:28:51.541Z,99.90
2023-02-09T06:31:23.229Z,99.90
2023-02-09T06:33:53.237Z,99.90
2023-02-09T06:36:20.341Z,99.90
2023-02-09T06:38:47.410Z,99.90
2023-02-09T06:41:14.353Z,99.90
2023-02-09T06:43:41.473Z,99.90
2023-02-09T06:46:11.080Z,99.90
2023-02-09T06:48:42.256Z,99.90
2023-02-09T06:51:10.364Z,99.90
2023-02-09T06:53:38.508Z,99.90
2023-02-09T06:56:06.784Z,99.90
2023-02-09T06:58:34.462Z,99.90
2023-02-09T07:01:04.977Z,99.90
2023-02-09T07:03:32.742Z,99.90
2023-02-09T07:06:06.604Z,99.90
2023-02-09T07:08:33.936Z,99.90
2023-02-09T07:11:04.921Z,99.90
2023-02-09T07:13:32.599Z,99.90
2023-02-09T07:16:02.044Z,99.90
2023-02-09T07:18:29.779Z,99.90
2023-02-09T07:21:01.582Z,99.90
2023-02-09T07:23:36.776Z,99.90
2023-02-09T07:26:04.813Z,99.90
2023-02-09T07:28:32.431Z,99.90
2023-02-09T07:31:04.682Z,99.90
2023-02-09T07:33:32.394Z,99.90
2023-02-09T07:35:59.786Z,99.90
2023-02-09T07:38:27.335Z,99.90
2023-02-09T07:40:58.678Z,99.90
2023-02-09T07:43:29.474Z,99.90
2023-02-09T07:46:01.362Z,99.90
2023-02-09T07:48:29.118Z,99.90
2023-02-09T07:50:59.183Z,99.90
2023-02-09T07:53:29.816Z,99.90
2023-02-09T07:56:01.376Z,99.90
2023-02-09T07:58:28.472Z,99.90
2023-02-09T08:01:05.283Z,99.90
2023-02-09T08:03:35.002Z,99.90
2023-02-09T08:06:19.628Z,99.90
2023-02-09T08:08:51.218Z,99.90
2023-02-09T08:11:24.343Z,99.90
2023-02-09T08:13:56.932Z,99.90
2023-02-09T08:16:29.981Z,99.90
2023-02-09T08:19:04.120Z,99.90
2023-02-09T08:21:36.241Z,99.90
2023-02-09T08:24:06.718Z,99.90
2023-02-09T08:26:35.711Z,99.90
2023-02-09T08:29:07.032Z,99.90
2023-02-09T08:31:34.285Z,99.90
2023-02-09T08:34:01.340Z,99.90
2023-02-09T08:36:31.411Z,99.90
2023-02-09T08:38:58.609Z,99.90
2023-02-09T08:41:25.602Z,99.90
2023-02-09T08:43:56.370Z,99.90
2023-02-09T08:46:29.589Z,99.90
2023-02-09T08:48:56.806Z,99.90
2023-02-09T08:51:23.805Z,99.90
2023-02-09T08:53:56.620Z,99.90
2023-02-09T08:56:26.448Z,99.90
2023-02-09T08:58:54.796Z,99.90
2023-02-09T09:01:21.859Z,99.90
2023-02-09T09:03:49.471Z,99.90
2023-02-09T09:06:17.087Z,99.90
2023-02-09T09:08:44.121Z,99.90
2023-02-09T09:11:18.886Z,99.90
2023-02-09T09:13:48.238Z,99.90
2023-02-09T09:16:22.189Z,99.90
2023-02-09T09:18:49.967Z,99.90
2023-02-09T09:21:18.656Z,99.90
2023-02-09T09:23:51.209Z,99.90
2023-02-09T09:26:18.544Z,99.90
2023-02-09T09:28:52.241Z,99.90
2023-02-09T09:31:23.413Z,99.90
2023-02-09T09:33:50.474Z,99.90
2023-02-09T09:36:22.204Z,99.90
2023-02-09T09:38:49.442Z,99.90
2023-02-09T09:41:24.522Z,99.90
2023-02-09T09:43:53.757Z,99.60
2023-02-09T09:46:30.700Z,99.70
2023-02-09T09:48:59.258Z,99.20
2023-02-09T09:51:38.013Z,98.90
2023-02-09T09:54:17.287Z,98.60
2023-02-09T09:56:44.412Z,98.50
2023-02-09T09:59:18.501Z,98.50
2023-02-09T10:01:50.345Z,98.60
2023-02-09T10:04:17.751Z,98.50
2023-02-09T10:06:47.064Z,98.50
2023-02-09T10:09:29.721Z,98.20
2023-02-09T10:12:07.563Z,98.20
2023-02-09T10:14:34.551Z,98.00
2023-02-09T10:17:03.121Z,97.70
2023-02-09T10:19:33.996Z,97.60
2023-02-09T10:22:01.016Z,97.40
2023-02-09T10:24:30.709Z,97.50
2023-02-09T10:27:26.879Z,97.10
2023-02-09T10:29:54.217Z,97.20
2023-02-09T10:32:29.388Z,96.60
2023-02-09T10:35:02.121Z,96.50
2023-02-09T10:37:38.261Z,96.00
2023-02-09T10:40:18.122Z,96.20
2023-02-09T10:42:59.633Z,96.00
2023-02-09T10:45:32.192Z,95.80
2023-02-09T10:48:10.170Z,95.40
2023-02-09T10:50:51.664Z,95.10
2023-02-09T10:53:24.381Z,95.30
2023-02-09T10:56:07.453Z,95.10
2023-02-09T10:58:37.195Z,95.50
2023-02-09T11:01:20.350Z,95.60
2023-02-09T11:04:02.483Z,96.10
2023-02-09T11:06:41.280Z,96.10
2023-02-09T11:09:18.601Z,96.10
2023-02-09T11:11:46.412Z,96.00
2023-02-09T11:14:18.101Z,96.40
2023-02-09T11:17:18.003Z,96.30
2023-02-09T11:20:20.533Z,96.00
2023-02-09T11:23:35.292Z,96.10
2023-02-09T11:26:16.074Z,96.30
2023-02-09T11:28:52.822Z,96.30
2023-02-09T11:31:48.412Z,96.10
2023-02-09T11:34:55.457Z,96.00
2023-02-09T11:37:37.389Z,96.00
2023-02-09T11:40:28.569Z,96.70
2023-02-09T11:43:15.372Z,96.20
2023-02-09T11:45:45.706Z,95.90
2023-02-09T11:48:20.981Z,95.80
2023-02-09T11:51:03.011Z,95.80
2023-02-09T11:53:42.103Z,95.60
2023-02-09T11:56:13.351Z,95.60
2023-02-09T11:58:47.358Z,95.50
2023-02-09T12:01:29.027Z,95.80
2023-02-09T12:04:13.037Z,95.40
2023-02-09T12:06:48.637Z,95.30
2023-02-09T12:09:36.674Z,95.30
2023-02-09T12:12:18.495Z,95.20
2023-02-09T12:15:04.958Z,95.30
2023-02-09T12:17:41.629Z,95.10
2023-02-09T12:20:26.727Z,94.90
2023-02-09T12:23:01.160Z,95.10
2023-02-09T12:25:51.616Z,95.10
2023-02-09T12:29:05.723Z,95.00
2023-02-09T12:32:27.644Z,95.00
2023-02-09T12:34:55.829Z,95.10
2023-02-09T12:37:28.278Z,95.20
2023-02-09T12:40:35.816Z,95.20
2023-02-09T12:43:29.972Z,94.80
2023-02-09T12:46:24.592Z,95.10
2023-02-09T12:49:13.981Z,95.00
2023-02-09T12:52:19.992Z,94.80
2023-02-09T12:54:52.467Z,94.80
2023-02-09T12:57:52.827Z,94.80
2023-02-09T13:01:05.164Z,94.80
2023-02-09T13:03:41.927Z,94.70
2023-02-09T13:06:29.622Z,94.60
2023-02-09T13:08:59.324Z,94.60
2023-02-09T13:11:32.849Z,94.60
2023-02-09T13:14:07.681Z,94.60
2023-02-09T13:17:32.018Z,94.80
2023-02-09T13:20:41.823Z,94.70
2023-02-09T13:23:29.229Z,94.60
2023-02-09T13:26:01.919Z,94.50
2023-02-09T13:31:37.075Z,94.30
2023-02-09T13:34:24.240Z,94.40
2023-02-09T13:37:06.312Z,94.30
2023-02-09T13:39:39.696Z,94.40
2023-02-09T13:42:20.567Z,94.30
2023-02-09T13:44:52.094Z,94.20
2023-02-09T13:47:22.170Z,94.30
2023-02-09T13:49:58.400Z,94.40
2023-02-09T13:52:26.968Z,94.40
2023-02-09T13:54:55.265Z,94.40
2023-02-09T13:57:31.489Z,94.40
2023-02-09T14:00:08.996Z,94.30
2023-02-09T14:02:36.989Z,94.70
2023-02-09T14:05:07.254Z,94.40
2023-02-09T14:07:37.848Z,94.10
2023-02-09T14:10:14.373Z,94.20
2023-02-09T14:12:51.219Z,94.20
2023-02-09T14:15:39.881Z,96.70
2023-02-09T14:18:29.577Z,95.70
2023-02-09T14:21:21.637Z,94.60
2023-02-09T14:24:08.649Z,94.50
2023-02-09T14:26:55.152Z,94.50
2023-02-09T14:29:28.455Z,94.40
2023-02-09T14:31:58.503Z,94.50
2023-02-09T14:34:33.257Z,94.60
2023-02-09T14:37:29.401Z,94.60
2023-02-09T14:40:01.891Z,94.70
2023-02-09T14:42:40.509Z,94.70
2023-02-09T14:45:30.690Z,94.70
2023-02-09T14:47:57.797Z,94.70
2023-02-09T14:50:34.388Z,94.70
2023-02-09T14:53:06.340Z,94.70
2023-02-09T14:55:46.253Z,94.70
2023-02-09T14:58:21.731Z,94.90
2023-02-09T15:00:50.038Z,95.10
2023-02-09T15:03:20.661Z,95.00
2023-02-09T15:06:00.347Z,95.10
2023-02-09T15:08:30.874Z,95.00
2023-02-09T15:11:00.635Z,95.20
2023-02-09T15:13:33.138Z,95.30
2023-02-09T15:16:00.178Z,95.40
2023-02-09T15:18:27.678Z,95.40
2023-02-09T15:20:59.674Z,95.20
2023-02-09T15:23:32.502Z,95.10
2023-02-09T15:26:02.691Z,95.30
2023-02-09T15:28:33.418Z,95.40
2023-02-09T15:31:01.834Z,95.40
2023-02-09T15:33:34.678Z,95.50
2023-02-09T15:36:06.083Z,95.40
2023-02-09T15:38:33.102Z,95.30
2023-02-09T15:41:19.181Z,95.40
2023-02-09T15:44:05.872Z,95.40
2023-02-09T15:46:51.758Z,95.40
2023-02-09T15:49:19.328Z,95.50
2023-02-09T15:51:46.380Z,95.40
2023-02-09T15:54:19.512Z,95.40
2023-02-09T15:56:49.572Z,95.40
2023-02-09T15:59:23.581Z,95.60
2023-02-09T16:01:50.983Z,95.60
2023-02-09T16:04:18.322Z,95.50
2023-02-09T16:06:49.044Z,95.80
2023-02-09T16:09:22.507Z,95.80
2023-02-09T16:11:50.025Z,95.80
2023-02-09T16:14:21.119Z,95.90
2023-02-09T16:16:51.869Z,95.90
2023-02-09T16:19:21.162Z,96.00
2023-02-09T16:21:51.843Z,95.90
2023-02-09T16:24:32.290Z,96.00
2023-02-09T16:27:00.781Z,96.00
2023-02-09T16:29:29.379Z,96.20
2023-02-09T16:31:56.720Z,96.80
2023-02-09T16:34:23.929Z,97.00
2023-02-09T16:36:57.290Z,97.40
2023-02-09T16:39:24.692Z,97.30
2023-02-09T16:41:52.722Z,97.50
2023-02-09T16:44:29.477Z,97.30
2023-02-09T16:47:00.251Z,97.00
2023-02-09T16:49:33.616Z,97.50
2023-02-09T16:52:06.267Z,97.50
2023-02-09T16:54:44.689Z,97.80
2023-02-09T16:57:14.616Z,98.10
2023-02-09T16:59:41.747Z,98.10
2023-02-09T17:02:40.865Z,98.60
2023-02-09T17:05:18.537Z,98.70
2023-02-09T17:07:54.429Z,98.80
2023-02-09T17:10:29.184Z,98.90
2023-02-09T17:12:56.458Z,99.00
2023-02-09T17:15:31.820Z,99.20
2023-02-09T17:18:04.824Z,99.30
2023-02-09T17:20:37.429Z,99.10
2023-02-09T17:23:05.465Z,99.10
2023-02-09T17:25:41.659Z,99.30
2023-02-09T17:28:08.859Z,99.50
2023-02-09T17:30:40.476Z,99.30
2023-02-09T17:33:22.531Z,99.40
2023-02-09T17:36:25.686Z,99.70
2023-02-09T17:38:44.138Z,99.90
2023-02-09T17:41:17.852Z,99.90
2023-02-09T17:43:51.435Z,99.90
2023-02-09T17:46:20.150Z,99.90
2023-02-09T17:48:49.107Z,99.90
2023-02-09T17:51:24.140Z,99.90
2023-02-09T17:53:51.249Z,99.90
2023-02-09T17:56:21.146Z,99.90
2023-02-09T17:58:48.227Z,99.90
2023-02-09T18:01:27.380Z,99.90
2023-02-09T18:03:58.628Z,99.90
2023-02-09T18:06:33.708Z,99.90
2023-02-09T18:09:01.299Z,99.90
2023-02-09T18:11:58.929Z,99.90
2023-02-09T18:14:28.717Z,99.90
2023-02-09T18:16:56.260Z,99.90
2023-02-09T18:19:25.921Z,99.90
2023-02-09T18:21:55.319Z,99.90
2023-02-09T18:24:24.926Z,99.90
2023-02-09T18:26:52.180Z,99.90
2023-02-09T18:29:29.323Z,99.90
2023-02-09T18:31:56.964Z,99.90
2023-02-09T18:34:28.227Z,99.90
2023-02-09T18:36:55.389Z,99.90
2023-02-09T18:39:25.682Z,99.90
2023-02-09T18:41:56.682Z,99.90
2023-02-09T18:44:30.418Z,99.90
2023-02-09T18:46:58.285Z,99.90
2023-02-09T18:49:26.854Z,99.90
2023-02-09T18:51:59.766Z,99.90
2023-02-09T18:54:29.060Z,99.90
2023-02-09T18:57:01.593Z,99.90
2023-02-09T18:59:30.133Z,99.90
2023-02-09T19:01:57.977Z,99.90
2023-02-09T19:04:29.421Z,99.90
2023-02-09T19:06:56.657Z,99.90
2023-02-09T19:09:26.838Z,99.90
2023-02-09T19:11:54.021Z,99.90
2023-02-09T19:14:41.555Z,99.90
2023-02-09T19:17:16.172Z,99.90
2023-02-09T19:19:45.984Z,99.90
2023-02-09T19:22:15.846Z,99.90
2023-02-09T19:24:43.185Z,99.90
2023-02-09T19:27:11.444Z,99.90
2023-02-09T19:29:42.625Z,99.90
2023-02-09T19:32:11.395Z,99.90
2023-02-09T19:34:46.004Z,99.90
2023-02-09T19:37:13.981Z,99.90
2023-02-09T19:40:00.425Z,99.90
2023-02-09T19:42:27.436Z,99.90
2023-02-09T19:44:55.826Z,99.90
2023-02-09T19:47:27.236Z,99.90
2023-02-09T19:50:00.579Z,99.90
2023-02-09T19:52:28.656Z,99.90
2023-02-09T19:54:57.693Z,99.90
2023-02-09T19:57:24.990Z,99.90
2023-02-09T19:59:55.773Z,99.90
2023-02-09T20:02:22.747Z,99.90
2023-02-09T20:04:50.073Z,99.90
2023-02-09T20:07:18.565Z,99.90
2023-02-09T20:09:46.153Z,99.90
2023-02-09T20:12:14.290Z,99.90
2023-02-09T20:14:44.382Z,99.90
2023-02-09T20:17:11.480Z,99.90
2023-02-09T20:19:39.203Z,99.90
2023-02-09T20:22:07.508Z,99.90
2023-02-09T20:24:36.238Z,99.90
2023-02-09T20:27:03.626Z,99.90
2023-02-09T20:29:33.244Z,99.90
2023-02-09T20:32:01.512Z,99.90
2023-02-09T20:34:28.633Z,99.90
2023-02-09T20:36:57.376Z,99.90
2023-02-09T20:39:27.191Z,99.90
2023-02-09T20:42:17.636Z,99.90
2023-02-09T20:45:03.701Z,99.90
2023-02-09T20:47:30.744Z,99.90
2023-02-09T20:49:59.865Z,99.90
2023-02-09T20:52:28.067Z,99.90
2023-02-09T20:54:55.335Z,99.90
2023-02-09T20:57:29.172Z,99.90
2023-02-09T20:59:56.947Z,99.90
2023-02-09T21:02:24.583Z,99.90
2023-02-09T21:04:54.167Z,99.90
2023-02-09T21:07:21.195Z,99.90
2023-02-09T21:09:48.326Z,99.90
2023-02-09T21:12:15.374Z,99.90
2023-02-09T21:14:46.527Z,99.90
2023-02-09T21:17:14.083Z,99.90
2023-02-09T21:19:41.297Z,99.90
2023-02-09T21:22:08.318Z,99.90
2023-02-09T21:24:37.088Z,99.90
2023-02-09T21:27:05.124Z,99.90
2023-02-09T21:29:32.471Z,99.90
2023-02-09T21:32:03.637Z,99.90
2023-02-09T21:34:31.166Z,99.90
2023-02-09T21:36:58.267Z,99.90
2023-02-09T21:39:25.341Z,99.90
2023-02-09T21:42:10.840Z,99.90
2023-02-09T21:44:38.126Z,99.90
2023-02-09T21:47:06.783Z,99.90
2023-02-09T21:49:33.893Z,99.90
2023-02-09T21:52:00.849Z,99.90
2023-02-09T21:54:33.158Z,99.90
2023-02-09T21:57:00.348Z,99.90
2023-02-09T21:59:28.457Z,99.90
2023-02-09T22:01:55.780Z,99.90
2023-02-09T22:04:24.421Z,99.90
2023-02-09T22:06:51.594Z,99.90
2023-02-09T22:09:23.067Z,99.90
2023-02-09T22:11:53.131Z,99.90
2023-02-09T22:14:20.182Z,99.90
2023-02-09T22:16:50.385Z,99.90
2023-02-09T22:19:17.572Z,99.90
2023-02-09T22:21:46.098Z,99.90
2023-02-09T22:24:16.376Z,99.90
2023-02-09T22:26:43.541Z,99.90
2023-02-09T22:29:13.711Z,99.90
2023-02-09T22:31:41.071Z,99.90
2023-02-09T22:34:08.025Z,99.90
2023-02-09T22:36:35.754Z,99.90
2023-02-09T22:39:05.700Z,99.90
2023-02-09T22:41:32.966Z,99.90
2023-02-09T22:44:03.014Z,99.90
2023-02-09T22:46:33.236Z,99.90
2023-02-09T22:49:03.062Z,99.90
2023-02-09T22:51:31.854Z,99.90
2023-02-09T22:53:59.856Z,99.90
2023-02-09T22:56:29.442Z,99.90
2023-02-09T22:58:58.443Z,99.90
2023-02-09T23:01:26.632Z,99.90
2023-02-09T23:03:54.536Z,99.90
2023-02-09T23:06:24.537Z,99.90
2023-02-09T23:08:53.847Z,99.90
2023-02-09T23:11:23.115Z,99.90
2023-02-09T23:14:03.833Z,99.90
2023-02-09T23:16:36.098Z,99.90
2023-02-09T23:19:07.673Z,99.90
2023-02-09T23:21:37.004Z,99.90
2023-02-09T23:24:05.384Z,99.90
2023-02-09T23:26:33.135Z,99.90
2023-02-09T23:29:05.145Z,99.90
2023-02-09T23:31:32.649Z,99.90
2023-02-09T23:33:59.845Z,99.90
2023-02-09T23:36:29.155Z,99.90
2023-02-09T23:38:58.848Z,99.90
2023-02-09T23:41:26.833Z,99.90
2023-02-09T23:43:54.598Z,99.90
2023-02-09T23:46:28.282Z,99.90
2023-02-09T23:48:56.399Z,99.90
2023-02-09T23:51:26.912Z,99.90
2023-02-09T23:53:55.515Z,99.90
2023-02-09T23:56:23.420Z,99.90
2023-02-09T23:58:55.099Z,99.90
